createdAt,value
2019-04-16T00:00:11.834Z,14.80
2019-04-16T00:02:41.015Z,13.90
2019-04-16T00:05:21.740Z,13.73
2019-04-16T00:07:47.967Z,13.60
2019-04-16T00:10:28.692Z,14.53
2019-04-16T00:13:06.837Z,14.53
2019-04-16T00:15:28.043Z,13.77
2019-04-16T00:17:49.233Z,14.77
2019-04-16T00:20:10.542Z,14.27
2019-04-16T00:22:45.657Z,14.10
2019-04-16T00:25:06.888Z,14.57
2019-04-16T00:27:28.818Z,13.80
2019-04-16T00:29:50.841Z,14.20
2019-04-16T00:32:13.950Z,13.60
2019-04-16T00:34:35.162Z,13.70
2019-04-16T00:36:57.454Z,14.80
2019-04-16T00:39:18.650Z,14.20
2019-04-16T00:41:39.853Z,13.70
2019-04-16T00:44:02.252Z,14.07
2019-04-16T00:46:23.648Z,14.50
2019-04-16T00:48:44.915Z,14.07
2019-04-16T00:51:06.215Z,13.73
2019-04-16T00:53:27.507Z,14.80
2019-04-16T00:55:48.717Z,13.97
2019-04-16T00:58:09.919Z,13.73
2019-04-16T01:00:31.353Z,15.87
2019-04-16T01:02:52.934Z,14.37
2019-04-16T01:05:14.141Z,14.83
2019-04-16T01:07:35.447Z,15.60
2019-04-16T01:09:56.666Z,14.37
2019-04-16T01:12:18.945Z,15.53
2019-04-16T01:14:40.171Z,14.53
2019-04-16T01:17:04.076Z,13.60
2019-04-16T01:19:24.507Z,13.70
2019-04-16T01:21:45.703Z,14.83
2019-04-16T01:24:06.905Z,14.60
2019-04-16T01:26:28.097Z,15.03
2019-04-16T01:29:07.565Z,14.77
2019-04-16T01:31:39.548Z,14.70
2019-04-16T01:34:11.503Z,14.93
2019-04-16T01:36:34.640Z,14.80
2019-04-16T01:39:14.937Z,15.17
2019-04-16T01:41:25.653Z,14.37
2019-04-16T01:43:46.837Z,14.77
2019-04-16T01:46:08.045Z,14.70
2019-04-16T01:48:29.233Z,15.43
2019-04-16T01:50:50.432Z,14.10
2019-04-16T01:53:11.619Z,14.93
2019-04-16T01:55:32.829Z,14.50
2019-04-16T01:57:54.129Z,14.57
2019-04-16T02:00:15.426Z,15.17
2019-04-16T02:02:36.658Z,14.23
2019-04-16T02:04:57.848Z,14.53
2019-04-16T02:07:19.048Z,13.70
2019-04-16T02:09:40.249Z,14.53
2019-04-16T02:12:01.606Z,14.40
2019-04-16T02:14:22.854Z,14.97
2019-04-16T02:16:44.045Z,14.33
2019-04-16T02:19:05.225Z,14.67
2019-04-16T02:21:27.747Z,14.87
2019-04-16T02:23:48.921Z,14.73
2019-04-16T02:26:11.325Z,14.97
2019-04-16T02:28:32.514Z,14.77
2019-04-16T02:30:53.930Z,14.87
2019-04-16T02:33:15.433Z,15.27
2019-04-16T02:35:36.722Z,14.17
2019-04-16T02:37:59.141Z,14.70
2019-04-16T02:40:20.330Z,15.30
2019-04-16T02:42:41.641Z,14.97
2019-04-16T02:45:03.807Z,14.27
2019-04-16T02:47:25.048Z,14.50
2019-04-16T02:49:46.248Z,15.40
2019-04-16T02:52:17.038Z,15.13
2019-04-16T02:54:42.929Z,14.33
2019-04-16T02:57:07.151Z,15.13
2019-04-16T02:59:46.062Z,15.13
2019-04-16T03:02:12.963Z,15.53
2019-04-16T03:04:39.048Z,15.67
2019-04-16T03:07:02.695Z,15.77
2019-04-16T03:09:23.343Z,15.23
2019-04-16T03:11:45.566Z,15.50
2019-04-16T03:14:07.657Z,15.87
2019-04-16T03:16:37.703Z,16.10
2019-04-16T03:18:58.245Z,19.57
2019-04-16T03:21:19.420Z,16.77
2019-04-16T03:23:40.920Z,16.80
2019-04-16T03:26:02.207Z,16.77
2019-04-16T03:28:27.366Z,19.13
2019-04-16T03:30:46.994Z,17.80
2019-04-16T03:33:12.839Z,20.57
2019-04-16T03:35:31.367Z,40.13
2019-04-16T03:37:52.587Z,51.20
2019-04-16T03:40:17.094Z,45.93
2019-04-16T03:42:36.989Z,38.23
2019-04-16T03:44:58.175Z,43.40
2019-04-16T03:47:20.056Z,37.53
2019-04-16T03:49:41.585Z,35.83
2019-04-16T03:52:04.918Z,33.67
2019-04-16T03:54:26.073Z,31.03
2019-04-16T03:56:47.285Z,31.23
2019-04-16T03:59:11.617Z,24.93
2019-04-16T04:01:31.718Z,24.00
2019-04-16T04:03:54.439Z,23.83
2019-04-16T04:06:16.032Z,20.93
2019-04-16T04:08:37.245Z,21.67
2019-04-16T04:10:58.560Z,20.03
2019-04-16T04:13:20.371Z,17.67
2019-04-16T04:15:41.753Z,17.73
2019-04-16T04:18:03.211Z,18.40
2019-04-16T04:20:24.690Z,17.70
2019-04-16T04:22:45.923Z,17.37
2019-04-16T04:25:07.424Z,16.93
2019-04-16T04:27:28.655Z,17.30
2019-04-16T04:29:50.003Z,17.33
2019-04-16T04:32:11.560Z,18.27
2019-04-16T04:34:32.898Z,17.77
2019-04-16T04:36:58.842Z,17.63
2019-04-16T04:39:17.672Z,17.03
2019-04-16T04:41:38.875Z,17.60
2019-04-16T04:44:03.950Z,17.40
2019-04-16T04:46:23.184Z,17.90
2019-04-16T04:48:44.488Z,17.63
2019-04-16T04:51:08.178Z,18.07
2019-04-16T04:53:28.912Z,18.23
2019-04-16T04:55:50.310Z,18.00
2019-04-16T04:58:11.848Z,18.77
2019-04-16T05:00:33.042Z,19.70
2019-04-16T05:02:54.518Z,18.90
2019-04-16T05:05:25.604Z,20.60
2019-04-16T05:07:46.424Z,32.40
2019-04-16T05:10:08.440Z,21.13
2019-04-16T05:12:30.155Z,19.73
2019-04-16T05:14:57.519Z,19.10
2019-04-16T05:17:15.533Z,19.37
2019-04-16T05:19:36.992Z,19.33
2019-04-16T05:21:58.187Z,19.43
2019-04-16T05:24:19.423Z,18.60
2019-04-16T05:26:40.722Z,18.30
2019-04-16T05:29:17.520Z,17.93
2019-04-16T05:31:41.724Z,17.30
2019-04-16T05:34:06.046Z,18.33
2019-04-16T05:36:26.066Z,18.10
2019-04-16T05:38:47.250Z,17.33
2019-04-16T05:41:13.644Z,18.40
2019-04-16T05:43:32.546Z,16.77
2019-04-16T05:45:53.808Z,17.93
2019-04-16T05:48:15.160Z,17.23
2019-04-16T05:50:36.370Z,17.57
2019-04-16T05:52:57.573Z,18.10
2019-04-16T05:55:26.569Z,18.20
2019-04-16T05:57:49.979Z,17.77
2019-04-16T06:00:16.567Z,18.90
2019-04-16T06:02:39.695Z,17.90
2019-04-16T06:05:00.879Z,17.97
2019-04-16T06:07:22.151Z,18.53
2019-04-16T06:09:44.457Z,17.17
2019-04-16T06:12:08.915Z,18.83
2019-04-16T06:14:40.413Z,19.47
2019-04-16T06:17:20.191Z,17.93
2019-04-16T06:19:46.397Z,18.13
2019-04-16T06:22:08.608Z,18.90
2019-04-16T06:24:41.464Z,19.40
2019-04-16T06:27:04.659Z,19.53
2019-04-16T06:29:29.069Z,18.53
2019-04-16T06:31:55.771Z,18.17
2019-04-16T06:34:18.951Z,18.47
2019-04-16T06:39:18.526Z,18.40
2019-04-16T06:41:47.466Z,18.63
2019-04-16T06:44:12.722Z,17.60
2019-04-16T06:46:51.004Z,17.87
2019-04-16T06:49:26.562Z,17.93
2019-04-16T06:51:52.819Z,17.57
2019-04-16T06:54:25.582Z,17.47
2019-04-16T06:57:09.602Z,18.63
2019-04-16T06:59:37.442Z,17.93
2019-04-16T07:02:12.919Z,17.43
2019-04-16T07:04:52.390Z,17.00
2019-04-16T07:07:40.063Z,17.60
2019-04-16T07:10:04.196Z,18.23
2019-04-16T07:12:26.368Z,17.43
2019-04-16T07:14:48.455Z,17.93
2019-04-16T07:17:10.344Z,18.80
2019-04-16T07:19:31.638Z,17.33
2019-04-16T07:21:56.474Z,18.10
2019-04-16T07:24:17.721Z,17.33
2019-04-16T07:26:39.958Z,18.27
2019-04-16T07:29:09.835Z,17.90
2019-04-16T07:31:39.285Z,19.03
2019-04-16T07:34:08.018Z,17.27
2019-04-16T07:36:47.961Z,18.77
2019-04-16T07:39:29.728Z,18.23
2019-04-16T07:42:10.244Z,17.93
2019-04-16T07:44:44.175Z,19.40
2019-04-16T07:47:19.642Z,18.30
2019-04-16T07:49:43.841Z,18.17
2019-04-16T07:52:12.162Z,18.43
2019-04-16T07:54:34.792Z,18.53
2019-04-16T07:56:56.164Z,18.07
2019-04-16T07:59:18.479Z,18.80
2019-04-16T08:01:39.871Z,18.90
2019-04-16T08:04:02.622Z,19.80
2019-04-16T08:06:24.174Z,19.10
2019-04-16T08:08:45.409Z,18.83
2019-04-16T08:11:06.632Z,17.93
2019-04-16T08:13:33.278Z,19.13
2019-04-16T08:15:52.634Z,19.00
2019-04-16T08:18:27.212Z,18.90
2019-04-16T08:21:00.450Z,20.20
2019-04-16T08:23:29.995Z,29.87
2019-04-16T08:26:00.281Z,19.73
2019-04-16T08:28:14.302Z,19.27
2019-04-16T08:30:39.286Z,19.47
2019-04-16T08:32:58.636Z,19.17
2019-04-16T08:35:19.893Z,19.47
2019-04-16T08:37:48.774Z,19.10
2019-04-16T08:40:08.776Z,19.93
2019-04-16T08:42:29.569Z,20.33
2019-04-16T08:44:52.059Z,19.63
2019-04-16T08:47:13.282Z,20.10
2019-04-16T08:49:34.512Z,19.90
2019-04-16T08:51:58.242Z,20.57
2019-04-16T08:54:19.432Z,19.80
2019-04-16T08:56:43.165Z,21.57
2019-04-16T08:59:09.579Z,19.60
2019-04-16T09:01:29.155Z,20.47
2019-04-16T09:03:50.417Z,20.33
2019-04-16T09:06:13.549Z,20.80
2019-04-16T09:08:53.147Z,20.33
2019-04-16T09:11:23.160Z,20.23
2019-04-16T09:13:44.399Z,20.40
2019-04-16T09:16:06.519Z,35.97
2019-04-16T09:18:32.576Z,23.27
2019-04-16T09:20:53.762Z,21.60
2019-04-16T09:23:15.003Z,20.90
2019-04-16T09:25:54.709Z,22.60
2019-04-16T09:28:25.831Z,20.20
2019-04-16T09:30:51.323Z,21.67
2019-04-16T09:33:23.282Z,19.87
2019-04-16T09:35:52.717Z,19.97
2019-04-16T09:38:29.288Z,19.60
2019-04-16T09:41:01.164Z,20.13
2019-04-16T09:43:32.908Z,20.30
2019-04-16T09:45:54.098Z,20.03
2019-04-16T09:48:15.341Z,21.17
2019-04-16T09:50:36.702Z,21.27
2019-04-16T09:52:57.925Z,19.97
2019-04-16T09:55:19.624Z,19.77
2019-04-16T09:57:41.044Z,19.20
2019-04-16T10:00:16.838Z,19.57
2019-04-16T10:02:39.109Z,19.53
2019-04-16T10:05:00.510Z,18.83
2019-04-16T10:07:21.837Z,20.00
2019-04-16T10:09:43.135Z,20.00
2019-04-16T10:12:15.969Z,19.20
2019-04-16T10:14:37.495Z,18.50
2019-04-16T10:16:58.872Z,19.77
2019-04-16T10:19:21.713Z,18.77
2019-04-16T10:21:43.381Z,19.60
2019-04-16T10:24:06.568Z,19.33
2019-04-16T10:26:27.903Z,18.73
2019-04-16T10:28:49.168Z,19.33
2019-04-16T10:31:13.004Z,18.43
2019-04-16T10:33:34.230Z,18.20
2019-04-16T10:35:57.472Z,17.07
2019-04-16T10:38:37.413Z,45.80
2019-04-16T10:41:03.105Z,22.87
2019-04-16T10:43:44.737Z,19.27
2019-04-16T10:46:09.852Z,18.83
2019-04-16T10:48:45.159Z,19.23
2019-04-16T10:51:24.956Z,22.37
2019-04-16T10:53:56.891Z,27.40
2019-04-16T10:56:22.933Z,18.43
2019-04-16T10:59:04.089Z,18.03
2019-04-16T11:01:34.699Z,18.77
2019-04-16T11:04:10.554Z,18.37
2019-04-16T11:06:35.062Z,29.63
2019-04-16T11:08:57.941Z,18.73
2019-04-16T11:11:20.561Z,18.97
2019-04-16T11:13:58.584Z,18.07
2019-04-16T11:16:08.949Z,19.10
2019-04-16T11:18:30.356Z,17.90
2019-04-16T11:20:51.568Z,18.00
2019-04-16T11:23:12.995Z,17.93
2019-04-16T11:25:34.700Z,17.30
2019-04-16T11:27:55.928Z,17.87
2019-04-16T11:30:35.779Z,17.63
2019-04-16T11:32:57.684Z,17.83
2019-04-16T11:35:22.776Z,16.60
2019-04-16T11:37:44.502Z,16.93
2019-04-16T11:40:05.385Z,16.67
2019-04-16T11:42:26.660Z,17.13
2019-04-16T11:44:50.243Z,16.67
2019-04-16T11:47:10.941Z,17.73
2019-04-16T11:49:32.207Z,17.40
2019-04-16T11:51:53.476Z,17.20
2019-04-16T11:54:15.881Z,16.13
2019-04-16T11:56:37.638Z,15.60
2019-04-16T11:58:58.947Z,16.00
2019-04-16T12:01:37.132Z,18.57
2019-04-16T12:04:17.119Z,16.00
2019-04-16T12:06:47.797Z,13.80
2019-04-16T12:09:16.972Z,16.13
2019-04-16T12:11:40.139Z,14.00
2019-04-16T12:14:12.054Z,14.23
2019-04-16T12:16:37.888Z,13.73
2019-04-16T12:19:17.682Z,14.97
2019-04-16T12:21:51.156Z,18.73
2019-04-16T12:24:25.981Z,14.20
2019-04-16T12:26:52.182Z,15.07
2019-04-16T12:29:24.488Z,15.60
2019-04-16T12:32:04.124Z,14.00
2019-04-16T12:34:30.213Z,14.47
2019-04-16T12:36:54.383Z,14.83
2019-04-16T12:39:35.999Z,15.60
2019-04-16T12:42:00.178Z,14.80
2019-04-16T12:44:26.597Z,14.70
2019-04-16T12:46:58.917Z,16.37
2019-04-16T12:49:38.486Z,33.90
2019-04-16T12:52:01.741Z,14.03
2019-04-16T12:54:39.847Z,14.67
2019-04-16T12:57:14.806Z,15.63
2019-04-16T12:59:48.996Z,14.30
2019-04-16T13:02:15.258Z,13.47
2019-04-16T13:04:40.887Z,13.30
2019-04-16T13:07:04.806Z,13.97
2019-04-16T13:09:33.578Z,14.07
2019-04-16T13:12:11.719Z,13.90
2019-04-16T13:15:00.005Z,14.20
2019-04-16T13:17:18.916Z,13.90
2019-04-16T13:19:42.694Z,13.80
2019-04-16T13:22:05.892Z,14.73
2019-04-16T13:24:31.553Z,14.07
2019-04-16T13:26:57.146Z,14.30
2019-04-16T13:29:18.849Z,14.07
2019-04-16T13:31:40.117Z,14.33
2019-04-16T13:34:01.426Z,14.27
2019-04-16T13:36:26.936Z,13.83
2019-04-16T13:38:48.044Z,13.07
2019-04-16T13:41:09.218Z,13.00
2019-04-16T13:43:47.375Z,13.97
2019-04-16T13:46:08.585Z,13.40
2019-04-16T13:48:43.981Z,13.73
2019-04-16T13:51:15.122Z,12.43
2019-04-16T13:53:37.408Z,12.40
2019-04-16T13:56:00.517Z,11.80
2019-04-16T13:58:38.902Z,12.00
2019-04-16T14:03:56.064Z,11.80
2019-04-16T14:06:14.813Z,12.03
2019-04-16T14:08:36.000Z,12.63
2019-04-16T14:10:57.207Z,12.73
2019-04-16T14:13:18.386Z,11.67
2019-04-16T14:15:40.636Z,12.87
2019-04-16T14:18:03.176Z,12.27
2019-04-16T14:20:26.153Z,13.37
2019-04-16T14:22:47.443Z,13.87
2019-04-16T14:25:09.450Z,12.83
2019-04-16T14:27:30.642Z,12.10
2019-04-16T14:29:51.975Z,13.30
2019-04-16T14:32:13.230Z,12.10
2019-04-16T14:34:42.564Z,11.97
2019-04-16T14:37:03.864Z,12.77
2019-04-16T14:39:38.887Z,13.03
2019-04-16T14:42:00.085Z,13.00
2019-04-16T14:44:23.202Z,13.33
2019-04-16T14:46:44.469Z,14.10
2019-04-16T14:49:05.652Z,13.20
2019-04-16T14:51:26.893Z,12.73
2019-04-16T14:53:55.777Z,12.23
2019-04-16T14:56:30.570Z,13.60
2019-04-16T14:58:53.647Z,12.53
2019-04-16T15:01:26.613Z,12.70
2019-04-16T15:03:49.749Z,13.13
2019-04-16T15:06:19.647Z,12.60
2019-04-16T15:08:59.968Z,11.90
2019-04-16T15:11:39.499Z,12.63
2019-04-16T15:14:02.601Z,34.47
2019-04-16T15:16:42.623Z,26.00
2019-04-16T15:19:11.525Z,16.90
2019-04-16T15:21:37.175Z,12.80
2019-04-16T15:24:03.080Z,21.33
2019-04-16T15:26:39.864Z,24.23
2019-04-16T15:29:07.033Z,13.90
2019-04-16T15:31:33.671Z,12.07
2019-04-16T15:34:11.331Z,12.50
2019-04-16T15:36:34.542Z,12.13
2019-04-16T15:39:02.182Z,11.93
2019-04-16T15:42:00.276Z,11.67
2019-04-16T15:44:23.978Z,12.00
2019-04-16T15:46:47.422Z,12.17
2019-04-16T15:49:10.657Z,12.70
2019-04-16T15:51:39.650Z,12.60
2019-04-16T15:54:08.738Z,11.90
2019-04-16T15:56:32.191Z,12.00
2019-04-16T15:59:03.830Z,12.20
2019-04-16T16:01:32.757Z,11.93
2019-04-16T16:04:11.289Z,12.93
2019-04-16T16:06:34.709Z,13.53
2019-04-16T16:09:07.461Z,13.47
2019-04-16T16:11:35.221Z,15.20
2019-04-16T16:13:59.958Z,14.53
2019-04-16T16:16:24.374Z,14.27
2019-04-16T16:18:45.720Z,13.87
2019-04-16T16:21:06.988Z,11.37
2019-04-16T16:23:32.737Z,11.80
2019-04-16T16:25:52.513Z,10.93
2019-04-16T16:28:13.684Z,10.97
2019-04-16T16:30:35.377Z,11.00
2019-04-16T16:32:56.936Z,12.00
2019-04-16T16:35:18.225Z,11.60
2019-04-16T16:37:39.997Z,10.90
2019-04-16T16:40:04.795Z,8.57
2019-04-16T16:42:27.541Z,6.40
2019-04-16T16:44:48.909Z,9.17
2019-04-16T16:47:12.339Z,17.33
2019-04-16T16:49:33.899Z,9.10
2019-04-16T16:52:12.430Z,10.40
2019-04-16T16:54:33.734Z,10.50
2019-04-16T16:57:02.084Z,13.00
2019-04-16T16:59:27.890Z,10.07
2019-04-16T17:01:54.384Z,7.70
2019-04-16T17:04:16.180Z,6.33
2019-04-16T17:06:37.359Z,5.97
2019-04-16T17:08:58.939Z,7.07
2019-04-16T17:11:20.420Z,6.00
2019-04-16T17:13:42.077Z,6.10
2019-04-16T17:16:03.931Z,6.47
2019-04-16T17:18:25.407Z,6.43
2019-04-16T17:20:50.041Z,6.07
2019-04-16T17:23:10.618Z,6.00
2019-04-16T17:25:36.524Z,5.73
2019-04-16T17:27:55.343Z,6.77
2019-04-16T17:30:17.383Z,5.57
2019-04-16T17:32:38.965Z,5.70
2019-04-16T17:35:00.477Z,5.30
2019-04-16T17:37:27.652Z,4.90
2019-04-16T17:39:48.647Z,4.80
2019-04-16T17:42:17.908Z,5.47
2019-04-16T17:44:41.357Z,5.20
2019-04-16T17:47:05.000Z,5.03
2019-04-16T17:49:28.480Z,4.90
2019-04-16T17:51:54.782Z,4.83
2019-04-16T17:54:27.011Z,4.43
2019-04-16T17:57:02.358Z,5.63
2019-04-16T17:59:29.078Z,5.30
2019-04-16T18:02:09.279Z,6.30
2019-04-16T18:04:35.467Z,12.63
2019-04-16T18:06:58.965Z,20.53
2019-04-16T18:09:42.209Z,15.23
2019-04-16T18:12:16.935Z,8.77
2019-04-16T18:14:57.324Z,7.10
2019-04-16T18:17:30.229Z,6.37
2019-04-16T18:20:10.385Z,5.17
2019-04-16T18:22:45.789Z,5.37
2019-04-16T18:25:21.105Z,5.13
2019-04-16T18:28:06.820Z,5.10
2019-04-16T18:30:38.880Z,5.40
2019-04-16T18:33:14.978Z,5.60
2019-04-16T18:35:53.351Z,5.67
2019-04-16T18:38:25.923Z,6.00
2019-04-16T18:41:02.442Z,6.13
2019-04-16T18:43:32.911Z,6.80
2019-04-16T18:46:22.739Z,6.77
2019-04-16T18:51:25.554Z,6.60
2019-04-16T18:53:46.799Z,7.10
2019-04-16T18:56:07.992Z,7.40
2019-04-16T18:58:30.696Z,7.43
2019-04-16T19:00:53.806Z,15.40
2019-04-16T19:03:15.935Z,19.90
2019-04-16T19:05:37.386Z,10.00
2019-04-16T19:07:59.809Z,8.93
2019-04-16T19:10:22.006Z,7.70
2019-04-16T19:12:43.218Z,8.37
2019-04-16T19:15:05.237Z,7.93
2019-04-16T19:17:26.502Z,8.83
2019-04-16T19:19:47.698Z,8.50
2019-04-16T19:22:08.902Z,8.97
2019-04-16T19:24:30.098Z,9.13
2019-04-16T19:26:51.552Z,9.33
2019-04-16T19:29:14.505Z,8.67
2019-04-16T19:31:35.868Z,8.50
2019-04-16T19:33:57.093Z,7.80
2019-04-16T19:36:19.780Z,8.13
2019-04-16T19:38:41.543Z,8.10
2019-04-16T19:41:03.087Z,29.93
2019-04-16T19:43:34.344Z,37.53
2019-04-16T19:45:53.872Z,12.23
2019-04-16T19:48:17.859Z,8.80
2019-04-16T19:50:40.929Z,30.57
2019-04-16T19:53:02.345Z,21.83
2019-04-16T19:55:23.543Z,26.23
2019-04-16T19:57:44.956Z,8.93
2019-04-16T20:00:07.269Z,8.00
2019-04-16T20:02:33.291Z,7.87
2019-04-16T20:04:53.845Z,8.10
2019-04-16T20:07:16.954Z,8.50
2019-04-16T20:09:39.227Z,7.87
2019-04-16T20:12:01.435Z,8.70
2019-04-16T20:14:22.624Z,9.63
2019-04-16T20:16:43.860Z,7.67
2019-04-16T20:19:07.033Z,8.83
2019-04-16T20:21:28.702Z,9.53
2019-04-16T20:23:50.028Z,9.07
2019-04-16T20:26:11.382Z,8.90
2019-04-16T20:28:32.750Z,9.87
2019-04-16T20:31:01.954Z,9.77
2019-04-16T20:33:17.329Z,10.50
2019-04-16T20:35:38.852Z,10.97
2019-04-16T20:38:00.158Z,9.83
2019-04-16T20:40:21.383Z,10.50
2019-04-16T20:42:43.019Z,10.50
2019-04-16T20:45:05.026Z,10.00
2019-04-16T20:47:26.458Z,10.03
2019-04-16T20:49:49.128Z,9.77
2019-04-16T20:52:10.961Z,9.80
2019-04-16T20:54:32.418Z,11.50
2019-04-16T20:56:53.973Z,11.20
2019-04-16T20:59:16.520Z,12.10
2019-04-16T21:01:37.994Z,10.67
2019-04-16T21:04:04.612Z,11.37
2019-04-16T21:06:25.032Z,11.40
2019-04-16T21:08:46.351Z,12.37
2019-04-16T21:11:09.466Z,12.70
2019-04-16T21:13:30.902Z,15.13
2019-04-16T21:15:52.134Z,10.70
2019-04-16T21:18:13.326Z,11.73
2019-04-16T21:20:34.569Z,11.20
2019-04-16T21:23:01.293Z,10.60
2019-04-16T21:25:20.266Z,12.03
2019-04-16T21:27:49.237Z,11.20
2019-04-16T21:30:13.060Z,12.40
2019-04-16T21:32:35.721Z,13.30
2019-04-16T21:35:00.792Z,21.30
2019-04-16T21:37:39.088Z,14.50
2019-04-16T21:40:01.700Z,17.70
2019-04-16T21:42:24.130Z,14.60
2019-04-16T21:44:45.482Z,13.43
2019-04-16T21:47:06.876Z,14.50
2019-04-16T21:49:38.484Z,14.80
2019-04-16T21:52:06.727Z,16.20
2019-04-16T21:54:30.577Z,13.63
2019-04-16T21:56:54.689Z,11.80
2019-04-16T21:59:25.318Z,12.70
2019-04-16T22:01:55.502Z,11.60
2019-04-16T22:04:17.748Z,12.70
2019-04-16T22:06:38.984Z,12.07
2019-04-16T22:09:03.835Z,11.90
2019-04-16T22:11:25.348Z,10.73
2019-04-16T22:13:50.465Z,11.87
2019-04-16T22:16:10.375Z,10.40
2019-04-16T22:18:31.946Z,11.43
2019-04-16T22:21:26.494Z,10.67
2019-04-16T22:23:50.352Z,12.37
2019-04-16T22:26:41.542Z,11.77
2019-04-16T22:29:03.631Z,11.53
2019-04-16T22:31:25.015Z,10.17
2019-04-16T22:33:46.424Z,10.87
2019-04-16T22:36:16.507Z,11.27
2019-04-16T22:38:38.283Z,10.87
2019-04-16T22:41:02.233Z,11.23
2019-04-16T22:43:43.951Z,11.03
2019-04-16T22:46:09.030Z,12.87
2019-04-16T22:48:30.681Z,10.27
2019-04-16T22:50:55.518Z,11.10
2019-04-16T22:53:18.018Z,14.07
2019-04-16T22:55:42.571Z,11.30
2019-04-16T22:58:04.787Z,12.63
2019-04-16T23:00:31.217Z,13.10
2019-04-16T23:09:02.796Z,11.90
2019-04-16T23:11:26.142Z,12.70
2019-04-16T23:13:47.426Z,13.00
2019-04-16T23:16:08.931Z,12.37
2019-04-16T23:18:35.252Z,12.43
2019-04-16T23:20:57.525Z,14.47
2019-04-16T23:26:16.943Z,13.87
2019-04-16T23:28:58.735Z,14.10
2019-04-16T23:31:22.768Z,13.50
2019-04-16T23:33:44.614Z,14.33
2019-04-16T23:48:47.869Z,15.43
2019-04-16T23:51:14.128Z,17.50
2019-04-16T23:53:53.679Z,15.77
2019-04-16T23:56:25.632Z,17.70
2019-04-16T23:59:02.749Z,15.13
